Time;durP1;ratioP1;P1;durP2;ratioP2;P2;SDS_P1;SDS_P2;PMS_P1;PMS_P2;Temp;Humidity;BMP_temperature;BMP_pressure;BME280_temperature;BME280_humidity;BME280_pressure;Samples;Min_cycle;Max_cycle;Signal;HPM_P1;HPM_P2
2023/03/17 00:00:48;;;;;;;24.05;15.98;;;11.40;91.20;;;;;;1905517;75;21173;-58
2023/03/17 00:03:33;;;;;;;27.60;15.70;;;11.30;91.20;;;;;;1905355;75;21148;-58
2023/03/17 00:06:00;;;;;;;27.60;16.32;;;11.20;91.30;;;;;;1904005;74;21168;-58
2023/03/17 00:08:36;;;;;;;30.70;16.25;;;11.20;91.40;;;;;;1905426;75;21059;-58
2023/03/17 00:11:08;;;;;;;27.85;15.83;;;11.20;91.40;;;;;;1905516;75;21082;-58
2023/03/17 00:13:37;;;;;;;25.80;15.15;;;11.20;91.40;;;;;;1905403;75;20991;-58
2023/03/17 00:16:09;;;;;;;28.70;16.45;;;11.20;91.40;;;;;;1907660;74;21051;-58
2023/03/17 00:18:39;;;;;;;27.87;16.93;;;11.10;91.40;;;;;;1924740;74;21141;-58
2023/03/17 00:21:13;;;;;;;30.00;17.20;;;11.10;91.40;;;;;;1924816;74;21094;-58
2023/03/17 00:23:45;;;;;;;28.15;17.52;;;11.10;91.30;;;;;;1924950;74;21112;-58
2023/03/17 00:26:15;;;;;;;27.40;16.55;;;11.00;91.30;;;;;;1924731;74;21575;-58
2023/03/17 00:28:44;;;;;;;30.52;16.57;;;10.90;91.40;;;;;;1925032;74;21011;-58
2023/03/17 00:31:19;;;;;;;25.68;14.70;;;10.80;91.20;;;;;;1924909;74;21078;-58
2023/03/17 00:33:55;;;;;;;28.17;16.07;;;10.60;91.20;;;;;;1924828;74;21010;-58
2023/03/17 00:36:24;;;;;;;25.62;15.43;;;10.70;91.40;;;;;;1923756;74;21139;-58
2023/03/17 00:38:53;;;;;;;23.50;15.78;;;10.60;91.40;;;;;;1924680;74;21039;-58
2023/03/17 00:41:22;;;;;;;22.80;13.68;;;10.60;91.50;;;;;;1924918;74;21062;-58
2023/03/17 00:43:52;;;;;;;24.87;16.52;;;10.60;91.50;;;;;;1924893;74;21006;-58
2023/03/17 00:46:34;;;;;;;29.15;17.12;;;10.70;91.50;;;;;;1924824;74;21042;-58
2023/03/17 00:48:59;;;;;;;19.87;13.95;;;10.60;91.50;;;;;;1924459;74;21141;-58
2023/03/17 00:51:28;;;;;;;26.33;16.05;;;10.70;91.50;;;;;;1924717;74;21619;-58
2023/03/17 00:53:58;;;;;;;24.70;14.05;;;10.70;91.50;;;;;;1924925;74;21027;-58
2023/03/17 00:56:28;;;;;;;27.55;15.00;;;10.70;91.50;;;;;;1924818;74;21023;-58
2023/03/17 00:58:58;;;;;;;25.92;15.55;;;10.70;91.50;;;;;;1924842;74;21128;-58
2023/03/17 01:01:27;;;;;;;25.62;14.65;;;10.70;91.50;;;;;;1924676;74;21161;-58
2023/03/17 01:03:57;;;;;;;24.32;15.00;;;10.70;91.50;;;;;;1924798;74;21035;-58
2023/03/17 01:06:26;;;;;;;25.92;14.28;;;10.80;91.50;;;;;;1924719;74;21023;-58
2023/03/17 01:08:56;;;;;;;23.90;14.47;;;10.80;91.60;;;;;;1924809;74;21080;-58
2023/03/17 01:11:25;;;;;;;23.92;13.18;;;10.80;91.60;;;;;;1925020;74;21069;-58
2023/03/17 01:13:54;;;;;;;26.25;14.98;;;10.80;91.70;;;;;;1924758;74;21086;-58
2023/03/17 01:16:24;;;;;;;26.00;14.30;;;10.80;91.70;;;;;;1924682;74;21090;-58
2023/03/17 01:18:53;;;;;;;24.40;15.03;;;10.80;91.60;;;;;;1924749;74;21059;-58
2023/03/17 01:21:22;;;;;;;30.15;16.65;;;10.80;91.60;;;;;;1924703;74;21511;-58
2023/03/17 01:23:52;;;;;;;27.65;15.68;;;10.90;91.60;;;;;;1924868;74;21011;-58
2023/03/17 01:26:22;;;;;;;33.05;16.90;;;10.90;91.60;;;;;;1924727;74;21148;-59
2023/03/17 01:28:52;;;;;;;30.02;15.88;;;10.80;91.60;;;;;;1924857;74;21094;-58
2023/03/17 01:31:22;;;;;;;28.57;15.72;;;10.80;91.50;;;;;;1924743;74;21567;-58
2023/03/17 01:33:51;;;;;;;28.25;15.68;;;10.80;91.50;;;;;;1924747;74;21125;-58
2023/03/17 01:36:20;;;;;;;32.75;16.55;;;10.70;91.40;;;;;;1924737;74;21129;-58
2023/03/17 01:38:50;;;;;;;38.45;18.48;;;10.60;91.50;;;;;;1924903;74;21102;-58
2023/03/17 01:41:22;;;;;;;28.30;15.93;;;10.60;91.60;;;;;;1924627;74;21039;-58
2023/03/17 01:43:51;;;;;;;29.75;15.60;;;10.60;91.60;;;;;;1924882;74;21038;-59
2023/03/17 01:46:35;;;;;;;29.60;14.23;;;10.60;91.70;;;;;;1924691;74;21125;-58
2023/03/17 01:49:09;;;;;;;30.17;16.77;;;10.60;91.90;;;;;;1924873;74;21023;-58
2023/03/17 01:51:53;;;;;;;29.87;14.93;;;10.60;92.10;;;;;;1924860;74;21618;-58
2023/03/17 01:54:28;;;;;;;27.22;15.20;;;10.70;91.90;;;;;;1924781;74;21026;-58
2023/03/17 01:57:00;;;;;;;29.45;15.80;;;10.70;91.90;;;;;;1924692;74;21751;-59
2023/03/17 01:59:31;;;;;;;38.92;16.25;;;10.70;91.90;;;;;;1924866;74;21156;-58
2023/03/17 02:02:03;;;;;;;31.55;17.98;;;10.80;91.90;;;;;;1924853;74;21112;-58
2023/03/17 02:04:34;;;;;;;33.02;18.25;;;10.80;92.10;;;;;;1924708;74;21082;-59
2023/03/17 02:07:04;;;;;;;36.20;18.42;;;10.80;91.80;;;;;;1924773;74;21144;-58
2023/03/17 02:09:33;;;;;;;42.13;18.73;;;10.80;91.80;;;;;;1924702;74;21136;-59
2023/03/17 02:12:04;;;;;;;43.42;17.92;;;10.80;91.90;;;;;;1924850;74;21512;-59
2023/03/17 02:14:35;;;;;;;32.40;16.42;;;10.80;92.00;;;;;;1924721;74;21042;-58
2023/03/17 02:17:04;;;;;;;28.60;15.98;;;10.80;91.90;;;;;;1924761;74;21082;-57
2023/03/17 02:19:34;;;;;;;29.80;15.75;;;10.80;92.00;;;;;;1924742;74;20983;-58
2023/03/17 02:22:03;;;;;;;35.92;17.60;;;10.90;92.10;;;;;;1924671;74;21087;-58
2023/03/17 02:24:35;;;;;;;28.92;17.20;;;10.90;92.10;;;;;;1924808;74;21072;-58
2023/03/17 02:27:08;;;;;;;32.35;16.87;;;11.00;92.10;;;;;;1924654;74;21070;-59
2023/03/17 02:29:37;;;;;;;34.08;17.40;;;11.00;92.10;;;;;;1922016;74;21051;-58
2023/03/17 02:32:08;;;;;;;37.15;17.00;;;11.00;92.10;;;;;;1924670;74;21612;-58
2023/03/17 02:34:38;;;;;;;35.05;17.40;;;11.10;92.00;;;;;;1924828;74;21563;-58
2023/03/17 02:37:07;;;;;;;35.83;18.30;;;11.10;92.00;;;;;;1924722;74;21136;-58
2023/03/17 02:39:37;;;;;;;37.33;18.17;;;11.10;92.00;;;;;;1924625;74;21626;-58
2023/03/17 02:42:07;;;;;;;39.13;18.73;;;11.10;92.00;;;;;;1924714;74;21109;-58
2023/03/17 02:44:37;;;;;;;33.67;18.62;;;11.00;92.00;;;;;;1924625;74;21354;-60
2023/03/17 02:47:07;;;;;;;42.20;21.48;;;11.00;92.10;;;;;;1924863;74;21074;-59
2023/03/17 02:49:37;;;;;;;46.48;22.45;;;11.00;92.10;;;;;;1924683;74;21098;-58
2023/03/17 02:52:08;;;;;;;44.80;22.73;;;11.00;92.10;;;;;;1924823;74;21437;-60
2023/03/17 02:54:37;;;;;;;47.90;21.77;;;11.00;92.10;;;;;;1924637;74;21203;-60
2023/03/17 02:57:07;;;;;;;52.70;23.12;;;11.00;92.10;;;;;;1924699;74;21193;-60
2023/03/17 02:59:38;;;;;;;56.95;22.77;;;10.90;92.20;;;;;;1924660;74;21199;-58
2023/03/17 03:02:06;;;;;;;43.35;21.55;;;10.90;92.10;;;;;;1924815;74;21114;-58
2023/03/17 03:04:36;;;;;;;47.23;20.32;;;10.80;92.10;;;;;;1924741;74;21618;-60
2023/03/17 03:07:05;;;;;;;45.40;20.08;;;10.80;92.20;;;;;;1924884;74;21239;-60
2023/03/17 03:09:34;;;;;;;49.50;19.92;;;10.80;92.20;;;;;;1924882;74;21002;-58
2023/03/17 03:12:04;;;;;;;53.17;22.65;;;10.80;92.30;;;;;;1924789;74;21201;-60
2023/03/17 03:14:33;;;;;;;56.13;20.65;;;10.80;92.30;;;;;;1924818;74;21070;-60
2023/03/17 03:17:03;;;;;;;53.00;21.68;;;10.80;92.30;;;;;;1924818;74;21275;-60
2023/03/17 03:19:32;;;;;;;53.38;22.87;;;10.90;92.60;;;;;;1910515;74;21282;-60
2023/03/17 03:22:01;;;;;;;48.63;21.15;;;10.90;92.30;;;;;;1905414;75;21334;-60
2023/03/17 03:24:30;;;;;;;55.67;22.58;;;10.90;92.30;;;;;;1905365;75;21107;-60
2023/03/17 03:26:59;;;;;;;59.23;23.07;;;10.90;92.30;;;;;;1905385;75;21163;-60
2023/03/17 03:29:28;;;;;;;42.53;18.15;;;10.90;92.50;;;;;;1905457;75;21115;-60
2023/03/17 03:31:57;;;;;;;52.78;21.12;;;11.00;92.50;;;;;;1905322;75;21162;-59
2023/03/17 03:34:26;;;;;;;60.28;21.97;;;11.00;92.50;;;;;;1905375;75;21237;-60
2023/03/17 03:36:55;;;;;;;75.90;23.87;;;11.10;92.50;;;;;;1905387;75;21230;-58
2023/03/17 03:39:24;;;;;;;70.70;24.45;;;11.10;92.50;;;;;;1905409;75;21150;-60
2023/03/17 03:41:58;;;;;;;65.00;22.95;;;11.10;92.40;;;;;;1905304;75;21228;-58
2023/03/17 03:44:24;;;;;;;50.05;19.10;;;11.00;92.30;;;;;;1903936;74;21162;-58
2023/03/17 03:46:53;;;;;;;68.70;24.18;;;11.00;92.40;;;;;;1905359;75;21620;-60
2023/03/17 03:49:23;;;;;;;70.85;24.47;;;11.00;92.50;;;;;;1905321;75;21218;-60
2023/03/17 03:51:52;;;;;;;72.87;22.75;;;11.00;92.50;;;;;;1905400;75;21126;-60
2023/03/17 03:54:21;;;;;;;63.75;22.98;;;11.00;92.60;;;;;;1905454;75;21170;-58
2023/03/17 03:56:50;;;;;;;72.70;24.57;;;11.00;92.60;;;;;;1905360;75;21162;-60
2023/03/17 03:59:19;;;;;;;66.62;20.92;;;11.10;92.70;;;;;;1905391;75;21095;-59
2023/03/17 04:01:48;;;;;;;70.70;22.37;;;11.10;92.70;;;;;;1905360;75;21142;-58
2023/03/17 04:04:17;;;;;;;67.08;23.70;;;11.10;92.70;;;;;;1905370;75;21208;-60
2023/03/17 04:06:46;;;;;;;68.62;20.70;;;11.20;92.70;;;;;;1905350;75;21190;-60
2023/03/17 04:09:15;;;;;;;47.10;18.45;;;11.20;92.80;;;;;;1905239;74;21411;-60
2023/03/17 04:11:44;;;;;;;49.50;20.32;;;11.10;92.80;;;;;;1905312;75;21166;-60
2023/03/17 04:14:13;;;;;;;52.48;18.15;;;11.20;92.90;;;;;;1905375;75;21047;-60
2023/03/17 04:16:42;;;;;;;64.25;21.95;;;11.20;93.10;;;;;;1905488;75;21099;-60
2023/03/17 04:19:12;;;;;;;63.98;21.10;;;11.20;92.90;;;;;;1911756;74;21445;-60
2023/03/17 04:21:41;;;;;;;71.22;21.42;;;11.20;92.90;;;;;;1924781;74;21606;-60
2023/03/17 04:24:10;;;;;;;64.07;20.17;;;11.30;92.90;;;;;;1924640;74;21195;-60
2023/03/17 04:26:40;;;;;;;60.33;21.15;;;11.30;92.90;;;;;;1924840;74;21177;-60
2023/03/17 04:29:14;;;;;;;69.95;21.62;;;11.30;92.90;;;;;;1924794;74;21126;-60
2023/03/17 04:31:40;;;;;;;59.45;20.35;;;11.30;92.90;;;;;;1924328;74;21235;-60
2023/03/17 04:34:17;;;;;;;55.28;19.02;;;11.30;92.90;;;;;;1924708;74;21066;-60
2023/03/17 04:36:47;;;;;;;51.90;19.62;;;11.30;92.90;;;;;;1924743;74;21182;-60
2023/03/17 04:39:17;;;;;;;60.10;21.35;;;11.30;93.00;;;;;;1924647;74;21714;-59
2023/03/17 04:41:46;;;;;;;56.02;18.92;;;11.30;93.00;;;;;;1924694;74;21281;-58
2023/03/17 04:44:15;;;;;;;64.53;20.00;;;11.30;92.90;;;;;;1924753;74;21255;-58
2023/03/17 04:46:45;;;;;;;66.50;20.85;;;11.30;92.90;;;;;;1931348;74;21177;-58
2023/03/17 04:49:14;;;;;;;56.73;20.02;;;11.20;93.00;;;;;;1924682;74;21161;-59
2023/03/17 04:51:43;;;;;;;58.80;20.52;;;11.20;93.10;;;;;;1924723;74;21094;-58
2023/03/17 04:54:12;;;;;;;70.32;22.82;;;11.20;93.00;;;;;;1924695;74;21201;-58
2023/03/17 04:56:41;;;;;;;55.28;19.48;;;11.20;93.10;;;;;;1924664;74;21201;-59
2023/03/17 04:59:10;;;;;;;67.25;22.05;;;11.20;93.10;;;;;;1924672;74;21261;-58
2023/03/17 05:01:39;;;;;;;70.05;23.07;;;11.20;93.20;;;;;;1924774;74;21244;-58
2023/03/17 05:04:08;;;;;;;55.60;19.67;;;11.20;93.10;;;;;;1924824;74;21272;-58
2023/03/17 05:06:37;;;;;;;71.85;23.30;;;11.20;93.20;;;;;;1924719;74;21197;-58
2023/03/17 05:09:06;;;;;;;59.95;22.13;;;11.20;93.30;;;;;;1924697;74;21051;-59
2023/03/17 05:11:35;;;;;;;53.85;20.75;;;11.20;93.30;;;;;;1924910;74;21121;-58
2023/03/17 05:14:05;;;;;;;53.60;19.10;;;11.20;93.30;;;;;;1924784;74;21722;-58
2023/03/17 05:16:34;;;;;;;55.73;21.35;;;11.20;93.30;;;;;;1924766;74;21181;-59
2023/03/17 05:19:03;;;;;;;51.00;20.37;;;11.30;93.30;;;;;;1924500;74;21261;-58
2023/03/17 05:21:33;;;;;;;59.48;21.45;;;11.20;93.20;;;;;;1905294;75;21197;-58
2023/03/17 05:24:01;;;;;;;69.37;23.92;;;11.20;93.40;;;;;;1905230;75;21428;-58
2023/03/17 05:26:30;;;;;;;62.45;20.65;;;11.20;93.30;;;;;;1905261;75;21131;-58
2023/03/17 05:28:59;;;;;;;57.43;20.92;;;11.20;93.40;;;;;;1905212;75;21131;-59
2023/03/17 05:31:29;;;;;;;54.48;20.00;;;11.20;93.30;;;;;;1905220;75;21205;-58
2023/03/17 05:33:59;;;;;;;56.18;21.33;;;11.20;93.30;;;;;;1905210;75;21198;-59
2023/03/17 05:36:28;;;;;;;67.32;21.27;;;11.30;93.40;;;;;;1905320;75;21266;-59
2023/03/17 05:38:57;;;;;;;50.63;18.98;;;11.40;93.30;;;;;;1905328;75;21071;-59
2023/03/17 05:41:26;;;;;;;46.35;20.30;;;11.40;93.20;;;;;;1905215;75;21154;-58
2023/03/17 05:43:56;;;;;;;47.23;18.85;;;11.40;93.20;;;;;;1905232;74;21138;-58
2023/03/17 05:46:25;;;;;;;63.33;20.43;;;11.40;93.10;;;;;;1905080;75;21232;-59
2023/03/17 05:48:54;;;;;;;56.28;19.52;;;11.50;93.20;;;;;;1905075;75;21109;-59
2023/03/17 05:51:23;;;;;;;66.02;22.40;;;11.50;93.10;;;;;;1905042;75;21142;-58
2023/03/17 05:53:52;;;;;;;60.08;22.62;;;11.50;93.10;;;;;;1905332;75;21268;-58
2023/03/17 05:56:21;;;;;;;64.42;24.32;;;11.40;93.00;;;;;;1905334;75;21189;-58
2023/03/17 05:58:50;;;;;;;54.30;21.73;;;11.40;93.10;;;;;;1905273;75;21220;-59
2023/03/17 06:01:19;;;;;;;56.42;22.73;;;11.40;93.10;;;;;;1905289;75;21043;-58
2023/03/17 06:03:49;;;;;;;59.58;23.45;;;11.40;93.10;;;;;;1905307;75;21190;-58
2023/03/17 06:06:18;;;;;;;52.03;22.67;;;11.50;93.20;;;;;;1905325;75;21326;-59
2023/03/17 06:08:47;;;;;;;69.20;27.62;;;11.50;93.20;;;;;;1905298;75;21019;-59
2023/03/17 06:11:18;;;;;;;59.93;23.55;;;11.60;93.20;;;;;;1905259;75;21192;-58
2023/03/17 06:13:46;;;;;;;56.30;24.57;;;11.60;93.10;;;;;;1905214;74;21503;-59
2023/03/17 06:16:15;;;;;;;57.58;21.20;;;11.60;93.10;;;;;;1905247;75;21493;-59
2023/03/17 06:18:44;;;;;;;55.03;21.93;;;11.70;93.00;;;;;;1905152;75;21273;-58
2023/03/17 06:21:14;;;;;;;76.40;24.77;;;11.70;92.90;;;;;;1917680;74;21355;-58
2023/03/17 06:23:43;;;;;;;50.98;20.80;;;11.60;92.80;;;;;;1924683;74;21098;-59
2023/03/17 06:26:12;;;;;;;53.13;22.25;;;11.60;92.90;;;;;;1924603;74;21640;-58
2023/03/17 06:28:41;;;;;;;61.58;23.77;;;11.50;93.00;;;;;;1924629;74;21072;-58
2023/03/17 06:31:10;;;;;;;49.40;20.82;;;11.60;93.00;;;;;;1924546;74;21213;-58
2023/03/17 06:33:39;;;;;;;55.03;22.05;;;11.60;93.10;;;;;;1930994;74;21275;-58
2023/03/17 06:36:09;;;;;;;45.50;22.62;;;11.70;93.10;;;;;;1924781;74;21612;-59
2023/03/17 06:38:38;;;;;;;57.25;21.90;;;11.70;93.00;;;;;;1924789;74;21102;-59
2023/03/17 06:41:07;;;;;;;38.42;18.92;;;11.70;92.90;;;;;;1924825;74;21129;-59
2023/03/17 06:43:36;;;;;;;44.23;19.90;;;11.60;92.90;;;;;;1924687;74;21159;-59
2023/03/17 06:46:06;;;;;;;43.48;18.23;;;11.50;92.90;;;;;;1924797;74;21102;-59
2023/03/17 06:48:35;;;;;;;50.65;20.97;;;11.40;93.00;;;;;;1924738;74;21100;-59
2023/03/17 06:51:05;;;;;;;38.98;17.50;;;11.40;93.10;;;;;;1924792;74;21015;-58
2023/03/17 06:53:33;;;;;;;45.33;21.90;;;11.40;93.10;;;;;;1924722;74;21185;-59
2023/03/17 06:56:03;;;;;;;39.08;19.25;;;11.40;93.20;;;;;;1924723;74;21133;-59
2023/03/17 06:58:32;;;;;;;35.48;17.02;;;11.50;93.10;;;;;;1924769;74;21202;-59
2023/03/17 07:01:02;;;;;;;28.70;16.32;;;11.50;93.00;;;;;;1924992;74;21063;-58
2023/03/17 07:03:33;;;;;;;29.20;14.35;;;11.50;93.00;;;;;;1924961;74;21138;-59
2023/03/17 07:06:02;;;;;;;36.88;16.25;;;11.50;93.00;;;;;;1924843;74;21094;-58
2023/03/17 07:08:32;;;;;;;30.80;15.63;;;11.60;93.00;;;;;;1924651;74;21215;-59
2023/03/17 07:11:03;;;;;;;30.50;14.53;;;11.60;93.20;;;;;;1924638;74;21215;-58
2023/03/17 07:13:37;;;;;;;29.23;14.70;;;11.60;92.90;;;;;;1924696;74;21062;-58
2023/03/17 07:16:06;;;;;;;34.63;16.52;;;11.70;92.90;;;;;;1924769;74;21180;-59
2023/03/17 07:18:36;;;;;;;34.45;16.00;;;11.80;92.90;;;;;;1924745;74;21032;-58
2023/03/17 07:21:05;;;;;;;42.00;18.98;;;11.80;92.90;;;;;;1918785;74;21103;-58
2023/03/17 07:23:35;;;;;;;34.58;16.60;;;11.90;92.80;;;;;;1905424;75;21050;-59
2023/03/17 07:26:04;;;;;;;33.58;16.93;;;11.90;92.80;;;;;;1905379;75;21002;-59
2023/03/17 07:28:33;;;;;;;54.42;22.87;;;11.90;92.70;;;;;;1905436;75;21142;-58
2023/03/17 07:31:06;;;;;;;46.55;23.05;;;12.00;92.70;;;;;;1905586;75;21127;-58
2023/03/17 07:33:33;;;;;;;46.58;21.55;;;12.00;92.60;;;;;;1905206;74;21023;-58
2023/03/17 07:36:07;;;;;;;;;;;11.90;92.60;;;;;;1908237;75;21011;-59
2023/03/17 07:38:37;;;;;;;42.05;19.23;;;11.90;92.60;;;;;;1905333;75;20985;-58
2023/03/17 07:41:09;;;;;;;40.23;19.52;;;11.90;92.60;;;;;;1905451;75;20975;-59
2023/03/17 07:43:37;;;;;;;32.50;17.32;;;11.90;92.60;;;;;;1905118;74;20988;-59
2023/03/17 07:46:07;;;;;;;33.40;15.93;;;11.90;92.60;;;;;;1905272;75;21089;-58
2023/03/17 07:48:39;;;;;;;38.00;17.57;;;11.90;92.70;;;;;;1905097;75;21015;-58
2023/03/17 07:51:06;;;;;;;33.50;16.57;;;12.00;92.70;;;;;;1905160;75;21035;-59
2023/03/17 07:53:35;;;;;;;39.67;16.23;;;12.00;92.60;;;;;;1905259;75;21039;-59
2023/03/17 07:56:05;;;;;;;32.85;16.80;;;12.00;92.60;;;;;;1905322;74;21649;-58
2023/03/17 07:58:35;;;;;;;42.25;20.15;;;12.10;92.60;;;;;;1905281;74;21027;-59
2023/03/17 08:01:04;;;;;;;41.13;20.92;;;12.10;92.50;;;;;;1905459;75;21159;-59
2023/03/17 08:03:33;;;;;;;36.70;18.50;;;12.10;92.50;;;;;;1905320;74;21237;-59
2023/03/17 08:06:04;;;;;;;37.65;18.90;;;12.00;92.50;;;;;;1905365;75;21079;-58
2023/03/17 08:08:34;;;;;;;25.40;14.47;;;12.00;92.50;;;;;;1905347;75;21098;-43
2023/03/17 08:11:05;;;;;;;27.10;15.40;;;12.00;92.70;;;;;;1903650;74;21140;-42
2023/03/17 08:13:34;;;;;;;26.02;14.45;;;12.00;92.90;;;;;;1904734;75;21093;-43
2023/03/17 08:16:03;;;;;;;31.68;16.48;;;12.20;93.00;;;;;;1904743;75;21137;-43
2023/03/17 08:18:32;;;;;;;23.35;14.30;;;12.40;93.20;;;;;;1904663;75;20999;-43
2023/03/17 08:21:02;;;;;;;29.40;15.23;;;12.60;93.10;;;;;;1905319;74;21097;-57
2023/03/17 08:23:32;;;;;;;27.35;13.98;;;12.80;92.90;;;;;;1924110;74;21088;-56
